sensor_id;sensor_type;location;lat;lon;timestamp;P1;durP1;ratioP1;P2;durP2;ratioP2
27728;SDS011;15126;42.186;24.340;2023-12-29T00:02:15;23.73;;;20.63;;
27728;SDS011;15126;42.186;24.340;2023-12-29T00:04:44;25.10;;;21.67;;
27728;SDS011;15126;42.186;24.340;2023-12-29T00:07:11;27.07;;;21.87;;
27728;SDS011;15126;42.186;24.340;2023-12-29T00:09:38;28.43;;;21.67;;
27728;SDS011;15126;42.186;24.340;2023-12-29T00:12:06;24.00;;;20.60;;
27728;SDS011;15126;42.186;24.340;2023-12-29T00:14:36;31.50;;;22.73;;
27728;SDS011;15126;42.186;24.340;2023-12-29T00:17:03;27.77;;;21.17;;
27728;SDS011;15126;42.186;24.340;2023-12-29T00:19:30;30.67;;;22.03;;
27728;SDS011;15126;42.186;24.340;2023-12-29T00:21:59;29.13;;;24.00;;
27728;SDS011;15126;42.186;24.340;2023-12-29T00:24:30;29.20;;;22.43;;
27728;SDS011;15126;42.186;24.340;2023-12-29T00:26:57;30.10;;;21.67;;
27728;SDS011;15126;42.186;24.340;2023-12-29T00:29:23;27.53;;;22.23;;
27728;SDS011;15126;42.186;24.340;2023-12-29T00:31:51;27.27;;;21.03;;
27728;SDS011;15126;42.186;24.340;2023-12-29T00:34:19;30.57;;;22.33;;
27728;SDS011;15126;42.186;24.340;2023-12-29T00:36:46;23.73;;;20.27;;
27728;SDS011;15126;42.186;24.340;2023-12-29T00:39:18;22.43;;;20.03;;
27728;SDS011;15126;42.186;24.340;2023-12-29T00:41:53;23.37;;;20.73;;
27728;SDS011;15126;42.186;24.340;2023-12-29T00:44:20;28.40;;;20.20;;
27728;SDS011;15126;42.186;24.340;2023-12-29T00:46:47;25.23;;;21.47;;
27728;SDS011;15126;42.186;24.340;2023-12-29T00:49:14;24.13;;;19.07;;
27728;SDS011;15126;42.186;24.340;2023-12-29T00:51:41;26.70;;;21.60;;
27728;SDS011;15126;42.186;24.340;2023-12-29T00:54:11;30.60;;;21.37;;
27728;SDS011;15126;42.186;24.340;2023-12-29T00:56:39;29.50;;;22.30;;
27728;SDS011;15126;42.186;24.340;2023-12-29T00:59:06;25.43;;;22.60;;
27728;SDS011;15126;42.186;24.340;2023-12-29T01:01:33;29.33;;;23.70;;
27728;SDS011;15126;42.186;24.340;2023-12-29T01:04:01;26.10;;;22.87;;
27728;SDS011;15126;42.186;24.340;2023-12-29T01:06:28;29.57;;;23.73;;
27728;SDS011;15126;42.186;24.340;2023-12-29T01:08:54;27.77;;;22.10;;
27728;SDS011;15126;42.186;24.340;2023-12-29T01:11:22;32.07;;;23.83;;
27728;SDS011;15126;42.186;24.340;2023-12-29T01:13:50;32.43;;;23.63;;
27728;SDS011;15126;42.186;24.340;2023-12-29T01:16:17;28.80;;;23.70;;
27728;SDS011;15126;42.186;24.340;2023-12-29T01:18:44;26.37;;;23.20;;
27728;SDS011;15126;42.186;24.340;2023-12-29T01:21:11;30.80;;;23.93;;
27728;SDS011;15126;42.186;24.340;2023-12-29T01:23:38;26.67;;;22.63;;
27728;SDS011;15126;42.186;24.340;2023-12-29T01:26:05;30.57;;;22.60;;
27728;SDS011;15126;42.186;24.340;2023-12-29T01:28:32;28.27;;;23.40;;
27728;SDS011;15126;42.186;24.340;2023-12-29T01:31:00;26.63;;;21.23;;
27728;SDS011;15126;42.186;24.340;2023-12-29T01:33:27;27.93;;;23.00;;
27728;SDS011;15126;42.186;24.340;2023-12-29T01:35:54;29.33;;;24.27;;
27728;SDS011;15126;42.186;24.340;2023-12-29T01:38:21;27.70;;;23.67;;
27728;SDS011;15126;42.186;24.340;2023-12-29T01:40:48;31.10;;;23.20;;
27728;SDS011;15126;42.186;24.340;2023-12-29T01:43:15;25.40;;;21.27;;
27728;SDS011;15126;42.186;24.340;2023-12-29T01:45:41;23.97;;;21.37;;
27728;SDS011;15126;42.186;24.340;2023-12-29T01:48:10;28.40;;;23.40;;
27728;SDS011;15126;42.186;24.340;2023-12-29T01:50:37;28.37;;;23.97;;
27728;SDS011;15126;42.186;24.340;2023-12-29T01:53:05;26.73;;;22.73;;
27728;SDS011;15126;42.186;24.340;2023-12-29T01:55:33;29.50;;;22.67;;
27728;SDS011;15126;42.186;24.340;2023-12-29T01:58:00;28.07;;;23.33;;
27728;SDS011;15126;42.186;24.340;2023-12-29T02:00:29;27.33;;;21.73;;
27728;SDS011;15126;42.186;24.340;2023-12-29T02:02:57;27.40;;;21.50;;
27728;SDS011;15126;42.186;24.340;2023-12-29T02:05:25;30.37;;;21.87;;
27728;SDS011;15126;42.186;24.340;2023-12-29T02:07:56;27.37;;;22.30;;
27728;SDS011;15126;42.186;24.340;2023-12-29T02:10:23;23.03;;;20.53;;
27728;SDS011;15126;42.186;24.340;2023-12-29T02:12:50;23.57;;;19.70;;
27728;SDS011;15126;42.186;24.340;2023-12-29T02:15:19;25.70;;;20.53;;
27728;SDS011;15126;42.186;24.340;2023-12-29T02:17:47;23.43;;;20.00;;
27728;SDS011;15126;42.186;24.340;2023-12-29T02:20:19;24.40;;;18.73;;
27728;SDS011;15126;42.186;24.340;2023-12-29T02:22:47;29.83;;;19.47;;
27728;SDS011;15126;42.186;24.340;2023-12-29T02:25:16;24.00;;;18.80;;
27728;SDS011;15126;42.186;24.340;2023-12-29T02:27:45;20.00;;;17.57;;
27728;SDS011;15126;42.186;24.340;2023-12-29T02:30:18;21.17;;;17.83;;
27728;SDS011;15126;42.186;24.340;2023-12-29T02:32:54;23.67;;;18.90;;
27728;SDS011;15126;42.186;24.340;2023-12-29T02:35:25;26.30;;;19.77;;
27728;SDS011;15126;42.186;24.340;2023-12-29T02:37:55;21.07;;;18.20;;
27728;SDS011;15126;42.186;24.340;2023-12-29T02:40:24;23.27;;;17.77;;
27728;SDS011;15126;42.186;24.340;2023-12-29T02:42:55;22.20;;;18.77;;
27728;SDS011;15126;42.186;24.340;2023-12-29T02:45:22;20.53;;;18.40;;
27728;SDS011;15126;42.186;24.340;2023-12-29T02:47:49;22.57;;;18.40;;
27728;SDS011;15126;42.186;24.340;2023-12-29T02:50:16;27.27;;;19.63;;
27728;SDS011;15126;42.186;24.340;2023-12-29T02:52:43;20.53;;;16.67;;
27728;SDS011;15126;42.186;24.340;2023-12-29T02:55:10;32.97;;;19.87;;
27728;SDS011;15126;42.186;24.340;2023-12-29T02:57:39;23.83;;;18.00;;
27728;SDS011;15126;42.186;24.340;2023-12-29T03:00:07;23.10;;;18.77;;
27728;SDS011;15126;42.186;24.340;2023-12-29T03:02:34;19.57;;;17.50;;
27728;SDS011;15126;42.186;24.340;2023-12-29T03:05:01;26.13;;;18.50;;
27728;SDS011;15126;42.186;24.340;2023-12-29T03:07:28;26.20;;;20.43;;
27728;SDS011;15126;42.186;24.340;2023-12-29T03:09:55;22.33;;;17.97;;
27728;SDS011;15126;42.186;24.340;2023-12-29T03:12:23;21.57;;;18.27;;
27728;SDS011;15126;42.186;24.340;2023-12-29T03:14:51;24.83;;;17.57;;
27728;SDS011;15126;42.186;24.340;2023-12-29T03:17:18;22.93;;;18.50;;
27728;SDS011;15126;42.186;24.340;2023-12-29T03:19:45;28.93;;;18.80;;
27728;SDS011;15126;42.186;24.340;2023-12-29T03:22:12;19.73;;;17.20;;
27728;SDS011;15126;42.186;24.340;2023-12-29T03:24:40;22.67;;;17.67;;
27728;SDS011;15126;42.186;24.340;2023-12-29T03:27:07;25.80;;;17.03;;
27728;SDS011;15126;42.186;24.340;2023-12-29T03:29:34;21.33;;;17.33;;
27728;SDS011;15126;42.186;24.340;2023-12-29T03:32:03;24.47;;;20.10;;
27728;SDS011;15126;42.186;24.340;2023-12-29T03:34:32;20.07;;;17.77;;
27728;SDS011;15126;42.186;24.340;2023-12-29T03:37:00;23.33;;;17.73;;
27728;SDS011;15126;42.186;24.340;2023-12-29T03:39:27;22.23;;;16.67;;
27728;SDS011;15126;42.186;24.340;2023-12-29T03:41:55;20.90;;;17.80;;
27728;SDS011;15126;42.186;24.340;2023-12-29T03:44:21;24.17;;;17.33;;
27728;SDS011;15126;42.186;24.340;2023-12-29T03:46:48;19.20;;;16.13;;
27728;SDS011;15126;42.186;24.340;2023-12-29T03:49:17;19.13;;;16.37;;
27728;SDS011;15126;42.186;24.340;2023-12-29T03:51:45;22.40;;;17.30;;
27728;SDS011;15126;42.186;24.340;2023-12-29T03:54:12;20.00;;;17.80;;
27728;SDS011;15126;42.186;24.340;2023-12-29T03:56:39;22.33;;;17.63;;
27728;SDS011;15126;42.186;24.340;2023-12-29T03:59:05;24.10;;;16.87;;
27728;SDS011;15126;42.186;24.340;2023-12-29T04:01:33;24.63;;;16.30;;
27728;SDS011;15126;42.186;24.340;2023-12-29T04:04:00;22.27;;;16.13;;
27728;SDS011;15126;42.186;24.340;2023-12-29T04:06:31;21.33;;;16.37;;
27728;SDS011;15126;42.186;24.340;2023-12-29T04:08:57;23.00;;;16.27;;
27728;SDS011;15126;42.186;24.340;2023-12-29T04:11:24;23.60;;;15.50;;
27728;SDS011;15126;42.186;24.340;2023-12-29T04:13:50;19.77;;;15.07;;
27728;SDS011;15126;42.186;24.340;2023-12-29T04:16:17;20.63;;;13.30;;
27728;SDS011;15126;42.186;24.340;2023-12-29T04:18:44;19.80;;;15.10;;
27728;SDS011;15126;42.186;24.340;2023-12-29T04:21:13;18.20;;;14.63;;
27728;SDS011;15126;42.186;24.340;2023-12-29T04:23:41;18.97;;;14.27;;
27728;SDS011;15126;42.186;24.340;2023-12-29T04:26:08;25.83;;;17.60;;
27728;SDS011;15126;42.186;24.340;2023-12-29T04:28:35;26.20;;;20.43;;
27728;SDS011;15126;42.186;24.340;2023-12-29T04:31:02;35.73;;;21.63;;
27728;SDS011;15126;42.186;24.340;2023-12-29T04:33:29;37.73;;;28.33;;
27728;SDS011;15126;42.186;24.340;2023-12-29T04:35:56;42.00;;;28.63;;
27728;SDS011;15126;42.186;24.340;2023-12-29T04:38:23;41.83;;;28.53;;
27728;SDS011;15126;42.186;24.340;2023-12-29T04:40:51;42.43;;;27.23;;
27728;SDS011;15126;42.186;24.340;2023-12-29T04:43:18;34.53;;;25.43;;
27728;SDS011;15126;42.186;24.340;2023-12-29T04:45:45;32.07;;;24.57;;
27728;SDS011;15126;42.186;24.340;2023-12-29T04:48:12;39.63;;;25.63;;
27728;SDS011;15126;42.186;24.340;2023-12-29T04:50:38;37.37;;;27.13;;
27728;SDS011;15126;42.186;24.340;2023-12-29T04:53:05;38.23;;;27.87;;
27728;SDS011;15126;42.186;24.340;2023-12-29T04:55:32;41.00;;;30.87;;
27728;SDS011;15126;42.186;24.340;2023-12-29T04:58:03;41.93;;;31.30;;
27728;SDS011;15126;42.186;24.340;2023-12-29T05:00:30;36.67;;;29.73;;
27728;SDS011;15126;42.186;24.340;2023-12-29T05:02:56;42.10;;;31.43;;
27728;SDS011;15126;42.186;24.340;2023-12-29T05:05:23;37.97;;;27.67;;
27728;SDS011;15126;42.186;24.340;2023-12-29T05:07:50;40.93;;;29.30;;
27728;SDS011;15126;42.186;24.340;2023-12-29T05:10:17;41.97;;;30.87;;
27728;SDS011;15126;42.186;24.340;2023-12-29T05:12:44;42.40;;;30.87;;
27728;SDS011;15126;42.186;24.340;2023-12-29T05:15:12;44.40;;;29.37;;
27728;SDS011;15126;42.186;24.340;2023-12-29T05:17:39;40.33;;;31.13;;
27728;SDS011;15126;42.186;24.340;2023-12-29T05:20:06;47.97;;;33.77;;
27728;SDS011;15126;42.186;24.340;2023-12-29T05:22:34;48.23;;;34.03;;
27728;SDS011;15126;42.186;24.340;2023-12-29T05:25:01;53.60;;;33.40;;
27728;SDS011;15126;42.186;24.340;2023-12-29T05:27:28;40.10;;;32.23;;
27728;SDS011;15126;42.186;24.340;2023-12-29T05:29:55;44.97;;;32.87;;
27728;SDS011;15126;42.186;24.340;2023-12-29T05:32:26;44.83;;;32.87;;
27728;SDS011;15126;42.186;24.340;2023-12-29T05:34:53;38.87;;;27.60;;
27728;SDS011;15126;42.186;24.340;2023-12-29T05:37:20;53.80;;;38.93;;
27728;SDS011;15126;42.186;24.340;2023-12-29T05:39:47;53.83;;;37.60;;
27728;SDS011;15126;42.186;24.340;2023-12-29T05:42:15;83.37;;;53.93;;
27728;SDS011;15126;42.186;24.340;2023-12-29T05:44:42;50.73;;;36.90;;
27728;SDS011;15126;42.186;24.340;2023-12-29T05:47:09;51.40;;;37.93;;
27728;SDS011;15126;42.186;24.340;2023-12-29T05:49:40;45.17;;;35.13;;
27728;SDS011;15126;42.186;24.340;2023-12-29T05:52:07;40.67;;;30.43;;
27728;SDS011;15126;42.186;24.340;2023-12-29T05:54:36;43.17;;;32.43;;
27728;SDS011;15126;42.186;24.340;2023-12-29T05:57:04;39.17;;;30.97;;
27728;SDS011;15126;42.186;24.340;2023-12-29T05:59:31;39.03;;;30.67;;
27728;SDS011;15126;42.186;24.340;2023-12-29T06:01:59;41.87;;;31.20;;
27728;SDS011;15126;42.186;24.340;2023-12-29T06:04:26;43.73;;;30.97;;
27728;SDS011;15126;42.186;24.340;2023-12-29T06:06:56;46.43;;;31.27;;
27728;SDS011;15126;42.186;24.340;2023-12-29T06:09:23;47.10;;;33.07;;
27728;SDS011;15126;42.186;24.340;2023-12-29T06:11:53;47.20;;;33.70;;
27728;SDS011;15126;42.186;24.340;2023-12-29T06:14:20;54.23;;;36.80;;
27728;SDS011;15126;42.186;24.340;2023-12-29T06:16:47;51.40;;;36.27;;
27728;SDS011;15126;42.186;24.340;2023-12-29T06:19:16;45.90;;;32.73;;
27728;SDS011;15126;42.186;24.340;2023-12-29T06:21:44;47.87;;;34.67;;
27728;SDS011;15126;42.186;24.340;2023-12-29T06:24:16;48.80;;;36.27;;
27728;SDS011;15126;42.186;24.340;2023-12-29T06:26:43;42.50;;;31.53;;
27728;SDS011;15126;42.186;24.340;2023-12-29T06:29:10;44.67;;;33.30;;
27728;SDS011;15126;42.186;24.340;2023-12-29T06:31:39;41.10;;;33.37;;
27728;SDS011;15126;42.186;24.340;2023-12-29T06:34:07;51.00;;;37.60;;
27728;SDS011;15126;42.186;24.340;2023-12-29T06:36:34;50.30;;;36.07;;
27728;SDS011;15126;42.186;24.340;2023-12-29T06:39:04;52.67;;;36.80;;
27728;SDS011;15126;42.186;24.340;2023-12-29T06:41:34;45.10;;;34.83;;
27728;SDS011;15126;42.186;24.340;2023-12-29T06:44:01;45.57;;;36.60;;
27728;SDS011;15126;42.186;24.340;2023-12-29T06:46:28;38.83;;;32.67;;
27728;SDS011;15126;42.186;24.340;2023-12-29T06:48:55;42.70;;;35.20;;
27728;SDS011;15126;42.186;24.340;2023-12-29T06:51:24;40.50;;;34.17;;
27728;SDS011;15126;42.186;24.340;2023-12-29T06:53:51;46.60;;;36.53;;
27728;SDS011;15126;42.186;24.340;2023-12-29T06:56:18;55.00;;;43.20;;
27728;SDS011;15126;42.186;24.340;2023-12-29T06:58:46;48.63;;;40.73;;
27728;SDS011;15126;42.186;24.340;2023-12-29T07:01:13;49.97;;;41.50;;
27728;SDS011;15126;42.186;24.340;2023-12-29T07:03:41;62.97;;;44.30;;
27728;SDS011;15126;42.186;24.340;2023-12-29T07:06:08;61.77;;;45.57;;
27728;SDS011;15126;42.186;24.340;2023-12-29T07:08:36;142.97;;;107.87;;
27728;SDS011;15126;42.186;24.340;2023-12-29T07:11:03;114.93;;;75.20;;
27728;SDS011;15126;42.186;24.340;2023-12-29T07:13:30;118.93;;;75.47;;
27728;SDS011;15126;42.186;24.340;2023-12-29T07:16:02;118.23;;;79.00;;
27728;SDS011;15126;42.186;24.340;2023-12-29T07:18:29;114.57;;;73.57;;
27728;SDS011;15126;42.186;24.340;2023-12-29T07:20:57;109.33;;;73.57;;
27728;SDS011;15126;42.186;24.340;2023-12-29T07:23:24;113.97;;;76.07;;
27728;SDS011;15126;42.186;24.340;2023-12-29T07:25:54;97.20;;;69.87;;
27728;SDS011;15126;42.186;24.340;2023-12-29T07:28:21;96.70;;;71.07;;
27728;SDS011;15126;42.186;24.340;2023-12-29T07:30:48;91.50;;;66.97;;
27728;SDS011;15126;42.186;24.340;2023-12-29T07:33:16;90.43;;;67.27;;
27728;SDS011;15126;42.186;24.340;2023-12-29T07:35:43;64.93;;;50.90;;
27728;SDS011;15126;42.186;24.340;2023-12-29T07:38:10;49.50;;;40.20;;
27728;SDS011;15126;42.186;24.340;2023-12-29T07:40:40;46.90;;;33.80;;
27728;SDS011;15126;42.186;24.340;2023-12-29T07:43:07;41.30;;;31.00;;
27728;SDS011;15126;42.186;24.340;2023-12-29T07:45:34;32.17;;;28.63;;
27728;SDS011;15126;42.186;24.340;2023-12-29T07:48:03;35.83;;;28.10;;
27728;SDS011;15126;42.186;24.340;2023-12-29T07:50:32;38.67;;;33.40;;
27728;SDS011;15126;42.186;24.340;2023-12-29T07:52:59;45.27;;;33.50;;
27728;SDS011;15126;42.186;24.340;2023-12-29T07:55:29;41.80;;;33.07;;
27728;SDS011;15126;42.186;24.340;2023-12-29T07:57:57;41.37;;;34.60;;
27728;SDS011;15126;42.186;24.340;2023-12-29T08:00:26;46.73;;;36.80;;
27728;SDS011;15126;42.186;24.340;2023-12-29T08:02:52;46.03;;;39.50;;
27728;SDS011;15126;42.186;24.340;2023-12-29T08:05:19;49.43;;;41.33;;
27728;SDS011;15126;42.186;24.340;2023-12-29T08:07:48;69.43;;;55.07;;
27728;SDS011;15126;42.186;24.340;2023-12-29T08:10:18;83.60;;;66.10;;
27728;SDS011;15126;42.186;24.340;2023-12-29T08:12:48;101.20;;;72.60;;
27728;SDS011;15126;42.186;24.340;2023-12-29T08:15:15;85.40;;;68.93;;
27728;SDS011;15126;42.186;24.340;2023-12-29T08:17:42;97.87;;;76.87;;
27728;SDS011;15126;42.186;24.340;2023-12-29T08:20:09;72.60;;;53.67;;
27728;SDS011;15126;42.186;24.340;2023-12-29T08:22:37;64.23;;;49.23;;
27728;SDS011;15126;42.186;24.340;2023-12-29T08:25:05;46.17;;;38.13;;
27728;SDS011;15126;42.186;24.340;2023-12-29T08:27:33;46.30;;;41.37;;
27728;SDS011;15126;42.186;24.340;2023-12-29T08:30:00;45.47;;;39.63;;
27728;SDS011;15126;42.186;24.340;2023-12-29T08:32:28;38.53;;;33.97;;
27728;SDS011;15126;42.186;24.340;2023-12-29T08:35:00;41.43;;;35.63;;
27728;SDS011;15126;42.186;24.340;2023-12-29T08:37:31;45.10;;;36.87;;
27728;SDS011;15126;42.186;24.340;2023-12-29T08:39:58;49.03;;;36.07;;
27728;SDS011;15126;42.186;24.340;2023-12-29T08:42:27;39.43;;;34.43;;
27728;SDS011;15126;42.186;24.340;2023-12-29T08:44:54;45.00;;;37.13;;
27728;SDS011;15126;42.186;24.340;2023-12-29T08:47:25;42.63;;;35.50;;
27728;SDS011;15126;42.186;24.340;2023-12-29T08:49:52;46.90;;;33.07;;
27728;SDS011;15126;42.186;24.340;2023-12-29T08:52:19;33.63;;;25.40;;
27728;SDS011;15126;42.186;24.340;2023-12-29T08:54:46;41.07;;;35.37;;
27728;SDS011;15126;42.186;24.340;2023-12-29T08:57:14;39.90;;;35.77;;
27728;SDS011;15126;42.186;24.340;2023-12-29T08:59:44;35.13;;;31.50;;
27728;SDS011;15126;42.186;24.340;2023-12-29T09:02:11;37.03;;;29.47;;
27728;SDS011;15126;42.186;24.340;2023-12-29T09:04:38;39.80;;;29.00;;
27728;SDS011;15126;42.186;24.340;2023-12-29T09:07:05;37.47;;;32.13;;
27728;SDS011;15126;42.186;24.340;2023-12-29T09:09:32;37.67;;;29.83;;
27728;SDS011;15126;42.186;24.340;2023-12-29T09:12:00;33.57;;;26.47;;
27728;SDS011;15126;42.186;24.340;2023-12-29T09:14:28;27.87;;;23.40;;
27728;SDS011;15126;42.186;24.340;2023-12-29T09:16:59;28.70;;;23.10;;
27728;SDS011;15126;42.186;24.340;2023-12-29T09:19:26;20.63;;;16.93;;
27728;SDS011;15126;42.186;24.340;2023-12-29T09:21:53;19.50;;;17.43;;
27728;SDS011;15126;42.186;24.340;2023-12-29T09:24:23;20.93;;;16.07;;
27728;SDS011;15126;42.186;24.340;2023-12-29T09:26:50;22.07;;;16.43;;
27728;SDS011;15126;42.186;24.340;2023-12-29T09:29:19;19.90;;;16.27;;
27728;SDS011;15126;42.186;24.340;2023-12-29T09:31:46;16.97;;;15.07;;
27728;SDS011;15126;42.186;24.340;2023-12-29T09:34:15;18.97;;;15.73;;
27728;SDS011;15126;42.186;24.340;2023-12-29T09:36:42;22.70;;;16.37;;
27728;SDS011;15126;42.186;24.340;2023-12-29T09:39:12;20.40;;;16.77;;
27728;SDS011;15126;42.186;24.340;2023-12-29T09:41:42;18.50;;;14.40;;
27728;SDS011;15126;42.186;24.340;2023-12-29T09:44:13;17.47;;;15.10;;
27728;SDS011;15126;42.186;24.340;2023-12-29T09:46:41;20.23;;;15.93;;
27728;SDS011;15126;42.186;24.340;2023-12-29T09:49:11;18.47;;;15.20;;
27728;SDS011;15126;42.186;24.340;2023-12-29T09:51:41;17.37;;;14.40;;
27728;SDS011;15126;42.186;24.340;2023-12-29T09:54:09;20.00;;;14.17;;
27728;SDS011;15126;42.186;24.340;2023-12-29T09:56:38;16.30;;;14.60;;
27728;SDS011;15126;42.186;24.340;2023-12-29T09:59:11;16.83;;;13.37;;
27728;SDS011;15126;42.186;24.340;2023-12-29T10:01:43;21.87;;;14.33;;
27728;SDS011;15126;42.186;24.340;2023-12-29T10:04:20;18.50;;;14.07;;
27728;SDS011;15126;42.186;24.340;2023-12-29T10:06:52;19.67;;;14.87;;
27728;SDS011;15126;42.186;24.340;2023-12-29T10:09:23;18.10;;;14.40;;
27728;SDS011;15126;42.186;24.340;2023-12-29T10:11:51;21.43;;;14.47;;
27728;SDS011;15126;42.186;24.340;2023-12-29T10:14:23;13.93;;;12.20;;
27728;SDS011;15126;42.186;24.340;2023-12-29T10:16:53;18.77;;;14.00;;
27728;SDS011;15126;42.186;24.340;2023-12-29T10:19:30;16.90;;;13.80;;
27728;SDS011;15126;42.186;24.340;2023-12-29T10:22:08;14.83;;;13.40;;
27728;SDS011;15126;42.186;24.340;2023-12-29T10:24:40;17.93;;;13.67;;
27728;SDS011;15126;42.186;24.340;2023-12-29T10:27:09;19.93;;;13.93;;
27728;SDS011;15126;42.186;24.340;2023-12-29T10:29:36;17.40;;;13.93;;
27728;SDS011;15126;42.186;24.340;2023-12-29T10:32:04;17.03;;;13.53;;
27728;SDS011;15126;42.186;24.340;2023-12-29T10:34:31;14.80;;;12.73;;
27728;SDS011;15126;42.186;24.340;2023-12-29T10:36:59;15.73;;;14.13;;
27728;SDS011;15126;42.186;24.340;2023-12-29T10:39:29;16.17;;;12.67;;
27728;SDS011;15126;42.186;24.340;2023-12-29T10:42:02;19.30;;;13.07;;
27728;SDS011;15126;42.186;24.340;2023-12-29T10:44:31;17.63;;;12.37;;
27728;SDS011;15126;42.186;24.340;2023-12-29T10:46:58;15.30;;;11.83;;
27728;SDS011;15126;42.186;24.340;2023-12-29T10:49:25;15.77;;;11.83;;
27728;SDS011;15126;42.186;24.340;2023-12-29T10:51:52;18.33;;;12.57;;
27728;SDS011;15126;42.186;24.340;2023-12-29T10:54:21;15.90;;;14.20;;
27728;SDS011;15126;42.186;24.340;2023-12-29T10:57:01;16.87;;;14.20;;
27728;SDS011;15126;42.186;24.340;2023-12-29T10:59:31;16.30;;;13.60;;
27728;SDS011;15126;42.186;24.340;2023-12-29T11:02:00;16.60;;;13.43;;
27728;SDS011;15126;42.186;24.340;2023-12-29T11:04:28;18.33;;;13.13;;
27728;SDS011;15126;42.186;24.340;2023-12-29T11:06:55;13.47;;;11.73;;
27728;SDS011;15126;42.186;24.340;2023-12-29T11:09:29;12.97;;;11.63;;
27728;SDS011;15126;42.186;24.340;2023-12-29T11:11:58;12.10;;;9.80;;
27728;SDS011;15126;42.186;24.340;2023-12-29T11:14:31;11.17;;;8.73;;
27728;SDS011;15126;42.186;24.340;2023-12-29T11:16:59;10.77;;;9.60;;
27728;SDS011;15126;42.186;24.340;2023-12-29T11:19:29;10.90;;;9.33;;
27728;SDS011;15126;42.186;24.340;2023-12-29T11:21:58;10.93;;;9.67;;
27728;SDS011;15126;42.186;24.340;2023-12-29T11:24:30;13.20;;;9.83;;
27728;SDS011;15126;42.186;24.340;2023-12-29T11:27:18;16.90;;;9.60;;
27728;SDS011;15126;42.186;24.340;2023-12-29T11:29:57;9.87;;;8.87;;
27728;SDS011;15126;42.186;24.340;2023-12-29T11:33:05;15.93;;;10.80;;
27728;SDS011;15126;42.186;24.340;2023-12-29T11:35:47;15.00;;;9.43;;
27728;SDS011;15126;42.186;24.340;2023-12-29T11:38:41;27.57;;;9.27;;
27728;SDS011;15126;42.186;24.340;2023-12-29T11:41:54;13.50;;;10.37;;
27728;SDS011;15126;42.186;24.340;2023-12-29T11:44:39;13.97;;;12.13;;
27728;SDS011;15126;42.186;24.340;2023-12-29T11:47:06;14.03;;;11.47;;
27728;SDS011;15126;42.186;24.340;2023-12-29T11:50:09;18.40;;;13.57;;
27728;SDS011;15126;42.186;24.340;2023-12-29T11:52:41;16.60;;;13.80;;
27728;SDS011;15126;42.186;24.340;2023-12-29T11:55:11;12.77;;;11.57;;
27728;SDS011;15126;42.186;24.340;2023-12-29T11:57:39;14.63;;;12.33;;
27728;SDS011;15126;42.186;24.340;2023-12-29T12:00:11;16.13;;;12.83;;
27728;SDS011;15126;42.186;24.340;2023-12-29T12:02:39;14.30;;;12.63;;
27728;SDS011;15126;42.186;24.340;2023-12-29T12:05:08;13.97;;;11.53;;
27728;SDS011;15126;42.186;24.340;2023-12-29T12:08:02;14.07;;;12.67;;
27728;SDS011;15126;42.186;24.340;2023-12-29T12:10:32;12.10;;;10.73;;
27728;SDS011;15126;42.186;24.340;2023-12-29T12:13:03;16.80;;;11.83;;
27728;SDS011;15126;42.186;24.340;2023-12-29T12:15:32;13.57;;;11.83;;
27728;SDS011;15126;42.186;24.340;2023-12-29T12:18:00;15.90;;;12.77;;
27728;SDS011;15126;42.186;24.340;2023-12-29T12:20:31;20.57;;;13.53;;
27728;SDS011;15126;42.186;24.340;2023-12-29T12:22:59;14.13;;;12.67;;
27728;SDS011;15126;42.186;24.340;2023-12-29T12:25:27;20.67;;;16.40;;
27728;SDS011;15126;42.186;24.340;2023-12-29T12:27:56;22.33;;;15.63;;
27728;SDS011;15126;42.186;24.340;2023-12-29T12:30:23;19.07;;;15.87;;
27728;SDS011;15126;42.186;24.340;2023-12-29T12:32:58;40.17;;;23.93;;
27728;SDS011;15126;42.186;24.340;2023-12-29T12:35:25;42.10;;;31.13;;
27728;SDS011;15126;42.186;24.340;2023-12-29T12:38:06;26.63;;;20.07;;
27728;SDS011;15126;42.186;24.340;2023-12-29T12:40:34;19.83;;;14.87;;
27728;SDS011;15126;42.186;24.340;2023-12-29T12:43:01;26.10;;;21.10;;
27728;SDS011;15126;42.186;24.340;2023-12-29T12:45:32;20.77;;;16.07;;
27728;SDS011;15126;42.186;24.340;2023-12-29T12:48:03;22.20;;;15.97;;
27728;SDS011;15126;42.186;24.340;2023-12-29T12:50:41;21.67;;;16.97;;
27728;SDS011;15126;42.186;24.340;2023-12-29T12:53:10;22.20;;;15.83;;
27728;SDS011;15126;42.186;24.340;2023-12-29T12:55:42;17.53;;;14.97;;
27728;SDS011;15126;42.186;24.340;2023-12-29T12:58:09;20.03;;;14.97;;
27728;SDS011;15126;42.186;24.340;2023-12-29T13:00:39;22.23;;;16.67;;
27728;SDS011;15126;42.186;24.340;2023-12-29T13:03:07;21.60;;;17.03;;
27728;SDS011;15126;42.186;24.340;2023-12-29T13:05:37;28.93;;;20.23;;
27728;SDS011;15126;42.186;24.340;2023-12-29T13:08:05;23.37;;;16.70;;
27728;SDS011;15126;42.186;24.340;2023-12-29T13:10:40;22.93;;;20.30;;
27728;SDS011;15126;42.186;24.340;2023-12-29T13:13:07;25.50;;;15.20;;
27728;SDS011;15126;42.186;24.340;2023-12-29T13:15:34;17.37;;;14.40;;
27728;SDS011;15126;42.186;24.340;2023-12-29T13:18:01;19.63;;;17.07;;
27728;SDS011;15126;42.186;24.340;2023-12-29T13:20:35;19.13;;;15.97;;
27728;SDS011;15126;42.186;24.340;2023-12-29T13:23:10;22.97;;;17.20;;
27728;SDS011;15126;42.186;24.340;2023-12-29T13:25:37;32.63;;;20.87;;
27728;SDS011;15126;42.186;24.340;2023-12-29T13:28:06;27.30;;;19.33;;
27728;SDS011;15126;42.186;24.340;2023-12-29T13:30:34;22.17;;;16.77;;
27728;SDS011;15126;42.186;24.340;2023-12-29T13:33:03;27.87;;;20.80;;
27728;SDS011;15126;42.186;24.340;2023-12-29T13:35:44;29.47;;;19.47;;
27728;SDS011;15126;42.186;24.340;2023-12-29T13:38:18;35.20;;;25.00;;
27728;SDS011;15126;42.186;24.340;2023-12-29T13:40:53;34.93;;;26.10;;
27728;SDS011;15126;42.186;24.340;2023-12-29T13:43:24;32.90;;;25.73;;
27728;SDS011;15126;42.186;24.340;2023-12-29T13:45:53;42.33;;;29.57;;
27728;SDS011;15126;42.186;24.340;2023-12-29T13:48:21;32.30;;;25.47;;
27728;SDS011;15126;42.186;24.340;2023-12-29T13:50:54;37.87;;;24.57;;
27728;SDS011;15126;42.186;24.340;2023-12-29T13:53:21;24.83;;;22.23;;
27728;SDS011;15126;42.186;24.340;2023-12-29T13:55:48;31.90;;;22.53;;
27728;SDS011;15126;42.186;24.340;2023-12-29T13:58:17;31.90;;;22.93;;
27728;SDS011;15126;42.186;24.340;2023-12-29T14:00:45;21.10;;;17.30;;
27728;SDS011;15126;42.186;24.340;2023-12-29T14:03:22;28.57;;;22.43;;
27728;SDS011;15126;42.186;24.340;2023-12-29T14:05:52;28.00;;;17.57;;
27728;SDS011;15126;42.186;24.340;2023-12-29T14:08:27;24.93;;;18.57;;
27728;SDS011;15126;42.186;24.340;2023-12-29T14:10:59;25.90;;;18.67;;
27728;SDS011;15126;42.186;24.340;2023-12-29T14:13:29;20.50;;;18.13;;
27728;SDS011;15126;42.186;24.340;2023-12-29T14:15:57;30.53;;;22.33;;
27728;SDS011;15126;42.186;24.340;2023-12-29T14:18:32;29.70;;;18.27;;
27728;SDS011;15126;42.186;24.340;2023-12-29T14:21:21;32.37;;;24.07;;